createdAt,value
2023-03-25T00:01:01.166Z,98837.27
2023-03-25T00:03:30.254Z,98838.52
2023-03-25T00:05:57.949Z,98847.05
2023-03-25T00:08:26.450Z,98851.20
2023-03-25T00:10:54.648Z,98848.50
2023-03-25T00:13:23.469Z,98846.17
2023-03-25T00:15:53.396Z,98846.52
2023-03-25T00:18:21.736Z,98851.20
2023-03-25T00:20:50.844Z,98851.95
2023-03-25T00:23:19.437Z,98847.36
2023-03-25T00:25:47.934Z,98848.95
2023-03-25T00:28:16.384Z,98848.42
2023-03-25T00:30:45.320Z,98849.90
2023-03-25T00:33:13.350Z,98846.49
2023-03-25T00:35:44.661Z,98843.91
2023-03-25T00:38:12.412Z,98839.60
2023-03-25T00:40:40.541Z,98842.89
2023-03-25T00:43:08.439Z,98846.58
2023-03-25T00:45:36.132Z,98842.17
2023-03-25T00:48:06.352Z,98838.70
2023-03-25T00:50:35.080Z,98835.87
2023-03-25T00:53:03.466Z,98839.40
2023-03-25T00:55:31.309Z,98846.98
2023-03-25T00:57:59.020Z,98852.64
2023-03-25T01:00:27.181Z,98841.13
2023-03-25T01:02:55.023Z,98840.48
2023-03-25T01:05:22.754Z,98845.02
2023-03-25T01:07:51.976Z,98847.05
2023-03-25T01:10:19.878Z,98843.27
2023-03-25T01:12:47.733Z,98843.40
2023-03-25T01:15:15.530Z,98838.65
2023-03-25T01:17:43.293Z,98842.08
2023-03-25T01:20:11.395Z,98838.60
2023-03-25T01:22:39.042Z,98834.13
2023-03-25T01:25:07.078Z,98830.02
2023-03-25T01:27:35.143Z,98827.36
2023-03-25T01:30:03.180Z,98824.85
2023-03-25T01:32:31.018Z,98820.48
2023-03-25T01:34:58.803Z,98823.03
2023-03-25T01:37:27.171Z,98819.80
2023-03-25T01:39:55.306Z,98815.86
2023-03-25T01:42:23.064Z,98815.21
2023-03-25T01:44:50.820Z,98820.04
2023-03-25T01:47:18.683Z,98815.93
2023-03-25T01:49:46.634Z,98817.27
2023-03-25T01:52:16.688Z,98813.83
2023-03-25T01:54:45.942Z,98810.44
2023-03-25T01:57:18.106Z,98808.27
2023-03-25T01:59:46.753Z,98807.42
2023-03-25T02:02:17.700Z,98809.47
2023-03-25T02:05:03.700Z,98809.52
2023-03-25T02:07:33.233Z,98812.87
2023-03-25T02:10:04.782Z,98812.27
2023-03-25T02:12:32.513Z,98816.03
2023-03-25T02:15:02.345Z,98816.02
2023-03-25T02:17:30.273Z,98808.64
2023-03-25T02:20:13.996Z,98800.69
2023-03-25T02:23:08.624Z,98798.79
2023-03-25T02:25:45.807Z,98804.30
2023-03-25T02:28:25.499Z,98795.80
2023-03-25T02:31:09.176Z,98797.08
2023-03-25T02:33:41.351Z,98798.38
2023-03-25T02:36:25.433Z,98809.08
2023-03-25T02:38:55.800Z,98807.55
2023-03-25T02:41:29.335Z,98809.75
2023-03-25T02:43:57.346Z,98810.33
2023-03-25T02:46:26.385Z,98811.88
2023-03-25T02:49:00.418Z,98812.86
2023-03-25T02:51:37.092Z,98807.56
2023-03-25T02:54:09.836Z,98807.28
2023-03-25T02:56:39.568Z,98807.90
2023-03-25T02:59:09.737Z,98806.77
2023-03-25T03:01:37.406Z,98806.24
2023-03-25T03:04:05.229Z,98804.52
2023-03-25T03:06:37.225Z,98806.20
2023-03-25T03:09:17.463Z,98804.93
2023-03-25T03:11:53.442Z,98803.56
2023-03-25T03:14:37.186Z,98803.27
2023-03-25T03:17:04.808Z,98797.57
2023-03-25T03:19:34.389Z,98800.41
2023-03-25T03:22:08.570Z,98809.49
2023-03-25T03:24:39.080Z,98811.54
2023-03-25T03:27:14.766Z,98813.28
2023-03-25T03:29:46.729Z,98809.91
2023-03-25T03:32:32.733Z,98806.84
2023-03-25T03:35:03.639Z,98799.21
2023-03-25T03:37:37.522Z,98796.06
2023-03-25T03:40:07.250Z,98799.24
2023-03-25T03:42:38.211Z,98809.12
2023-03-25T03:45:29.325Z,98809.39
2023-03-25T03:47:59.379Z,98800.70
2023-03-25T03:50:31.627Z,98800.59
2023-03-25T03:53:08.611Z,98791.16
2023-03-25T03:55:42.000Z,98790.73
2023-03-25T03:58:15.207Z,98794.67
2023-03-25T04:00:50.509Z,98794.14
2023-03-25T04:03:24.671Z,98788.84
2023-03-25T04:05:55.751Z,98789.16
2023-03-25T04:08:32.241Z,98787.81
2023-03-25T04:11:07.779Z,98784.39
2023-03-25T04:13:37.516Z,98784.33
2023-03-25T04:16:06.416Z,98786.07
2023-03-25T04:18:34.171Z,98783.92
2023-03-25T04:21:02.017Z,98782.32
2023-03-25T04:23:30.708Z,98788.57
2023-03-25T04:26:02.598Z,98793.51
2023-03-25T04:28:31.782Z,98797.03
2023-03-25T04:31:00.492Z,98795.85
2023-03-25T04:33:31.966Z,98798.94
2023-03-25T04:36:01.945Z,98799.89
2023-03-25T04:38:30.422Z,98804.17
2023-03-25T04:40:58.181Z,98809.83
2023-03-25T04:43:26.003Z,98818.88
2023-03-25T04:45:57.636Z,98825.92
2023-03-25T04:48:33.576Z,98828.27
2023-03-25T04:51:03.358Z,98822.33
2023-03-25T04:53:31.110Z,98827.31
2023-03-25T04:56:00.150Z,98833.37
2023-03-25T04:58:28.836Z,98827.16
2023-03-25T05:00:56.937Z,98834.73
2023-03-25T05:03:24.986Z,98832.39
2023-03-25T05:05:53.346Z,98831.09
2023-03-25T05:08:24.235Z,98825.79
2023-03-25T05:10:52.448Z,98827.26
2023-03-25T05:13:20.868Z,98828.53
2023-03-25T05:15:48.640Z,98828.88
2023-03-25T05:18:17.061Z,98823.31
2023-03-25T05:20:46.701Z,98828.08
2023-03-25T05:23:21.946Z,98833.04
2023-03-25T05:25:50.959Z,98830.07
2023-03-25T05:28:19.434Z,98836.63
2023-03-25T05:30:47.240Z,98837.39
2023-03-25T05:33:16.570Z,98838.17
2023-03-25T05:35:44.880Z,98835.64
2023-03-25T05:38:13.677Z,98835.14
2023-03-25T05:40:41.459Z,98841.22
2023-03-25T05:43:09.177Z,98846.19
2023-03-25T05:45:37.045Z,98849.34
2023-03-25T05:48:04.976Z,98852.01
2023-03-25T05:50:32.778Z,98847.95
2023-03-25T05:53:00.536Z,98845.56
2023-03-25T05:55:28.315Z,98840.05
2023-03-25T05:57:57.007Z,98844.05
2023-03-25T06:00:24.860Z,98838.11
2023-03-25T06:02:52.964Z,98844.80
2023-03-25T06:05:23.853Z,98846.44
2023-03-25T06:07:55.950Z,98847.27
2023-03-25T06:10:23.805Z,98851.35
2023-03-25T06:12:53.059Z,98855.00
2023-03-25T06:15:29.462Z,98860.73
2023-03-25T06:17:57.554Z,98859.59
2023-03-25T06:20:26.124Z,98857.33
2023-03-25T06:22:53.818Z,98856.06
2023-03-25T06:25:21.716Z,98857.96
2023-03-25T06:27:50.209Z,98858.81
2023-03-25T06:30:19.481Z,98857.61
2023-03-25T06:32:52.230Z,98859.30
2023-03-25T06:35:20.776Z,98858.42
2023-03-25T06:37:49.319Z,98851.62
2023-03-25T06:40:28.993Z,98856.38
2023-03-25T06:42:57.014Z,98858.61
2023-03-25T06:45:24.824Z,98859.45
2023-03-25T06:48:06.605Z,98856.80
2023-03-25T06:50:34.448Z,98855.34
2023-03-25T06:53:03.380Z,98861.41
2023-03-25T06:55:30.998Z,98860.96
2023-03-25T06:57:58.723Z,98865.66
2023-03-25T07:00:28.396Z,98864.42
2023-03-25T07:02:56.068Z,98865.96
2023-03-25T07:05:25.105Z,98869.57
2023-03-25T07:07:52.945Z,98870.45
2023-03-25T07:10:20.795Z,98875.09
2023-03-25T07:12:48.508Z,98880.38
2023-03-25T07:15:16.204Z,98878.52
2023-03-25T07:17:44.817Z,98875.05
2023-03-25T07:20:14.504Z,98875.20
2023-03-25T07:22:43.696Z,98874.53
2023-03-25T07:25:11.338Z,98876.92
2023-03-25T07:27:38.989Z,98879.60
2023-03-25T07:30:13.154Z,98875.66
2023-03-25T07:32:41.061Z,98872.80
2023-03-25T07:35:09.433Z,98867.91
2023-03-25T07:37:37.238Z,98869.55
2023-03-25T07:40:05.212Z,98875.38
2023-03-25T07:42:32.951Z,98875.50
2023-03-25T07:45:23.532Z,98867.83
2023-03-25T07:47:53.659Z,98866.93
2023-03-25T07:50:25.054Z,98861.83
2023-03-25T07:52:54.285Z,98857.40
2023-03-25T07:55:21.917Z,98854.98
2023-03-25T07:57:49.559Z,98859.38
2023-03-25T08:00:17.326Z,98851.55
2023-03-25T08:02:45.258Z,98850.99
2023-03-25T08:05:21.104Z,98852.64
2023-03-25T08:07:52.739Z,98851.60
2023-03-25T08:10:20.390Z,98847.96
2023-03-25T08:12:51.740Z,98846.79
2023-03-25T08:15:20.668Z,98845.02
2023-03-25T08:17:48.356Z,98843.76
2023-03-25T08:20:16.110Z,98844.92
2023-03-25T08:22:44.564Z,98841.77
2023-03-25T08:25:12.403Z,98839.90
2023-03-25T08:27:40.292Z,98840.68
2023-03-25T08:30:10.640Z,98839.95
2023-03-25T08:32:38.605Z,98838.67
2023-03-25T08:35:07.178Z,98837.55
2023-03-25T08:37:35.333Z,98836.20
2023-03-25T08:40:07.497Z,98840.02
2023-03-25T08:42:36.278Z,98842.06
2023-03-25T08:45:04.967Z,98837.66
2023-03-25T08:47:32.823Z,98839.92
2023-03-25T08:50:00.726Z,98841.20
2023-03-25T08:52:28.455Z,98841.20
2023-03-25T08:54:56.429Z,98849.41
2023-03-25T08:57:24.299Z,98848.92
2023-03-25T08:59:52.196Z,98850.70
2023-03-25T09:02:19.843Z,98849.79
2023-03-25T09:04:48.718Z,98848.35
2023-03-25T09:07:19.812Z,98847.81
2023-03-25T09:09:47.675Z,98852.05
2023-03-25T09:12:15.392Z,98846.62
2023-03-25T09:14:43.291Z,98844.53
2023-03-25T09:17:11.102Z,98842.12
2023-03-25T09:19:38.794Z,98841.37
2023-03-25T09:22:07.432Z,98840.14
2023-03-25T09:24:35.686Z,98838.84
2023-03-25T09:27:03.772Z,98826.94
2023-03-25T09:29:31.615Z,98823.61
2023-03-25T09:31:59.850Z,98817.27
2023-03-25T09:34:28.087Z,98818.66
2023-03-25T09:36:56.316Z,98822.27
2023-03-25T09:39:24.065Z,98828.70
2023-03-25T09:41:51.693Z,98821.89
2023-03-25T09:44:26.701Z,98827.13
2023-03-25T09:46:56.576Z,98832.11
2023-03-25T09:49:27.870Z,98830.09
2023-03-25T09:51:56.294Z,98827.67
2023-03-25T09:54:24.001Z,98827.14
2023-03-25T09:56:52.957Z,98826.27
2023-03-25T09:59:25.608Z,98813.70
2023-03-25T10:02:09.564Z,98822.23
2023-03-25T10:04:37.495Z,98821.33
2023-03-25T10:07:21.848Z,98825.46
2023-03-25T10:10:12.334Z,98822.46
2023-03-25T10:12:43.003Z,98822.02
2023-03-25T10:15:26.754Z,98818.17
2023-03-25T10:18:10.451Z,98819.41
2023-03-25T10:20:50.427Z,98815.05
2023-03-25T10:23:21.541Z,98813.63
2023-03-25T10:25:53.349Z,98811.53
2023-03-25T10:28:27.237Z,98815.05
2023-03-25T10:30:55.624Z,98812.49
2023-03-25T10:33:39.245Z,98813.48
2023-03-25T10:36:12.451Z,98806.73
2023-03-25T10:38:41.858Z,98807.21
2023-03-25T10:41:24.483Z,98807.39
2023-03-25T10:43:53.147Z,98807.82
2023-03-25T10:46:24.097Z,98806.87
2023-03-25T10:48:52.168Z,98805.02
2023-03-25T10:51:24.580Z,98806.77
2023-03-25T10:53:53.193Z,98797.55
2023-03-25T10:56:41.360Z,98799.15
2023-03-25T10:59:25.224Z,98793.23
2023-03-25T11:01:54.093Z,98792.05
2023-03-25T11:04:23.801Z,98793.61
2023-03-25T11:06:55.223Z,98788.98
2023-03-25T11:09:30.544Z,98785.27
2023-03-25T11:12:00.339Z,98778.70
2023-03-25T11:14:29.516Z,98775.36
2023-03-25T11:17:03.850Z,98776.88
2023-03-25T11:19:36.826Z,98780.05
2023-03-25T11:22:09.024Z,98778.06
2023-03-25T11:24:41.054Z,98769.83
2023-03-25T11:27:09.047Z,98765.60
2023-03-25T11:29:37.611Z,98763.66
2023-03-25T11:32:13.843Z,98759.55
2023-03-25T11:34:42.142Z,98755.08
2023-03-25T11:37:18.730Z,98751.30
2023-03-25T11:39:49.711Z,98751.12
2023-03-25T11:42:17.489Z,98752.23
2023-03-25T11:44:52.300Z,98744.63
2023-03-25T11:47:23.029Z,98743.49
2023-03-25T11:49:52.295Z,98743.77
2023-03-25T11:52:22.163Z,98739.27
2023-03-25T11:54:52.950Z,98738.09
2023-03-25T11:57:24.434Z,98728.49
2023-03-25T12:00:00.968Z,98726.43
2023-03-25T12:02:31.244Z,98726.68
2023-03-25T12:04:59.193Z,98722.17
2023-03-25T12:07:27.335Z,98718.98
2023-03-25T12:09:58.889Z,98710.16
2023-03-25T12:12:32.715Z,98713.19
2023-03-25T12:15:16.468Z,98708.08
2023-03-25T12:17:44.243Z,98707.06
2023-03-25T12:20:27.936Z,98706.63
2023-03-25T12:23:11.648Z,98708.30
2023-03-25T12:25:39.472Z,98707.80
2023-03-25T12:28:23.203Z,98706.52
2023-03-25T12:31:07.542Z,98711.24
2023-03-25T12:33:41.777Z,98718.45
2023-03-25T12:36:27.167Z,98732.34
2023-03-25T12:38:58.507Z,98771.48
2023-03-25T12:41:38.731Z,98732.98
2023-03-25T12:44:06.389Z,98733.04
2023-03-25T12:46:44.249Z,98724.05
2023-03-25T12:49:21.295Z,98716.66
2023-03-25T12:52:04.012Z,98713.64
2023-03-25T12:54:31.645Z,98717.14
2023-03-25T12:57:11.117Z,98715.98
2023-03-25T12:59:38.906Z,98708.63
2023-03-25T13:02:27.186Z,98705.48
2023-03-25T13:05:04.750Z,98704.19
2023-03-25T13:07:36.539Z,98701.20
2023-03-25T13:10:14.040Z,98701.38
2023-03-25T13:12:47.920Z,98693.23
2023-03-25T13:15:26.811Z,98692.34
2023-03-25T13:18:18.327Z,98688.92
2023-03-25T13:20:51.292Z,98685.14
2023-03-25T13:23:22.020Z,98682.23
2023-03-25T13:26:07.014Z,98677.16
2023-03-25T13:28:40.375Z,98678.34
2023-03-25T13:31:12.791Z,98675.64
2023-03-25T13:33:56.428Z,98675.92
2023-03-25T13:36:41.416Z,98672.94
2023-03-25T13:39:14.029Z,98679.33
2023-03-25T13:41:57.728Z,98676.48
2023-03-25T13:44:41.523Z,98671.83
2023-03-25T13:47:12.201Z,98671.77
2023-03-25T13:49:47.665Z,98670.15
2023-03-25T13:52:15.944Z,98661.30
2023-03-25T13:54:43.578Z,98660.63
2023-03-25T13:57:27.239Z,98657.47
2023-03-25T14:00:11.089Z,98660.83
2023-03-25T14:02:44.327Z,98658.90
2023-03-25T14:05:29.366Z,98655.42
2023-03-25T14:08:13.163Z,98648.89
2023-03-25T14:10:56.816Z,98647.63
2023-03-25T14:13:36.448Z,98653.80
2023-03-25T14:16:04.234Z,98653.04
2023-03-25T14:18:32.442Z,98659.45
2023-03-25T14:21:16.652Z,98663.98
2023-03-25T14:23:44.712Z,98667.11
2023-03-25T14:26:13.519Z,98672.66
2023-03-25T14:28:45.997Z,98672.45
2023-03-25T14:31:13.689Z,98678.14
2023-03-25T14:33:57.398Z,98673.38
2023-03-25T14:36:49.469Z,98669.20
2023-03-25T14:39:33.074Z,98670.14
2023-03-25T14:42:01.650Z,98671.61
2023-03-25T14:44:32.946Z,98669.67
2023-03-25T14:47:17.123Z,98674.30
2023-03-25T14:49:50.339Z,98676.44
2023-03-25T14:52:20.680Z,98677.13
2023-03-25T14:54:53.080Z,98673.73
2023-03-25T14:57:26.176Z,98664.95
2023-03-25T15:00:12.953Z,98665.95
2023-03-25T15:02:42.789Z,98662.27
2023-03-25T15:05:17.879Z,98670.48
2023-03-25T15:07:47.599Z,98673.52
2023-03-25T15:10:42.227Z,98678.19
2023-03-25T15:13:12.120Z,98684.77
2023-03-25T15:15:46.160Z,98685.08
2023-03-25T15:18:33.882Z,98691.42
2023-03-25T15:21:07.807Z,98687.42
2023-03-25T15:23:51.397Z,98676.61
2023-03-25T15:26:35.057Z,98675.52
2023-03-25T15:29:18.766Z,98685.59
2023-03-25T15:32:02.417Z,98686.39
2023-03-25T15:34:39.333Z,98694.54
2023-03-25T15:37:30.362Z,98695.31
2023-03-25T15:40:26.462Z,98698.08
2023-03-25T15:42:57.477Z,98693.46
2023-03-25T15:45:31.493Z,98694.62
2023-03-25T15:48:15.292Z,98687.52
2023-03-25T15:50:42.994Z,98691.10
2023-03-25T15:53:36.068Z,98694.44
2023-03-25T15:56:18.473Z,98691.30
2023-03-25T15:59:03.309Z,98693.52
2023-03-25T16:01:33.180Z,98691.55
2023-03-25T16:04:04.834Z,98693.22
2023-03-25T16:06:35.187Z,98693.43
2023-03-25T16:09:03.141Z,98697.66
2023-03-25T16:11:31.316Z,98695.70
2023-03-25T16:14:15.382Z,98699.16
2023-03-25T16:16:49.434Z,98698.35
2023-03-25T16:19:20.271Z,98700.50
2023-03-25T16:21:49.721Z,98699.52
2023-03-25T16:24:20.609Z,98699.21
2023-03-25T16:26:49.159Z,98702.67
2023-03-25T16:29:21.607Z,98702.76
2023-03-25T16:31:53.867Z,98706.26
2023-03-25T16:34:21.851Z,98704.48
2023-03-25T16:36:50.744Z,98709.38
2023-03-25T16:39:19.129Z,98709.38
2023-03-25T16:41:48.812Z,98709.67
2023-03-25T16:44:19.160Z,98709.93
2023-03-25T16:46:47.510Z,98712.65
2023-03-25T16:49:31.384Z,98713.66
2023-03-25T16:52:01.445Z,98712.20
2023-03-25T16:54:32.357Z,98714.81
2023-03-25T16:57:01.015Z,98717.73
2023-03-25T16:59:30.529Z,98723.99
2023-03-25T17:01:59.771Z,98726.70
2023-03-25T17:04:44.812Z,98733.25
2023-03-25T17:07:14.183Z,98734.32
2023-03-25T17:09:44.138Z,98739.92
2023-03-25T17:12:17.180Z,98740.26
2023-03-25T17:14:46.924Z,98745.23
2023-03-25T17:17:30.755Z,98740.63
2023-03-25T17:20:01.872Z,98736.54
2023-03-25T17:22:38.590Z,98729.89
2023-03-25T17:25:16.183Z,98724.34
2023-03-25T17:27:43.936Z,98739.43
2023-03-25T17:30:35.098Z,98737.87
2023-03-25T17:33:10.901Z,98741.10
2023-03-25T17:35:40.040Z,98739.39
2023-03-25T17:38:13.086Z,98735.70
2023-03-25T17:40:40.893Z,98723.58
2023-03-25T17:43:17.202Z,98716.99
2023-03-25T17:45:47.067Z,98721.02
2023-03-25T17:48:17.453Z,98714.87
2023-03-25T17:50:52.414Z,98719.02
2023-03-25T17:53:20.608Z,98720.98
2023-03-25T17:55:48.970Z,98722.62
2023-03-25T17:58:16.863Z,98724.42
2023-03-25T18:00:44.924Z,98723.96
2023-03-25T18:03:14.306Z,98723.45
2023-03-25T18:05:42.035Z,98725.02
2023-03-25T18:08:12.795Z,98725.83
2023-03-25T18:10:41.674Z,98725.06
2023-03-25T18:13:09.647Z,98722.54
2023-03-25T18:15:39.461Z,98727.30
2023-03-25T18:18:14.385Z,98728.59
2023-03-25T18:20:42.363Z,98731.15
2023-03-25T18:23:10.241Z,98732.42
2023-03-25T18:25:38.273Z,98732.66
2023-03-25T18:28:06.063Z,98735.54
2023-03-25T18:30:40.543Z,98734.92
2023-03-25T18:33:08.242Z,98736.23
2023-03-25T18:35:36.104Z,98731.82
2023-03-25T18:38:04.414Z,98733.40
2023-03-25T18:40:34.568Z,98725.21
2023-03-25T18:43:02.358Z,98724.98
2023-03-25T18:45:30.109Z,98720.35
2023-03-25T18:47:58.110Z,98724.71
2023-03-25T18:50:26.093Z,98725.56
2023-03-25T18:52:54.811Z,98723.06
2023-03-25T18:55:23.160Z,98722.23
2023-03-25T18:57:50.977Z,98719.27
2023-03-25T19:00:28.851Z,98718.45
2023-03-25T19:02:58.324Z,98713.89
2023-03-25T19:05:26.265Z,98711.02
2023-03-25T19:07:53.975Z,98713.24
2023-03-25T19:10:26.375Z,98713.61
2023-03-25T19:12:54.275Z,98709.80
2023-03-25T19:15:24.857Z,98711.83
2023-03-25T19:17:53.038Z,98709.43
2023-03-25T19:20:22.238Z,98710.70
2023-03-25T19:22:51.175Z,98713.05
2023-03-25T19:25:19.676Z,98711.61
2023-03-25T19:27:48.219Z,98713.23
2023-03-25T19:30:18.322Z,98709.44
2023-03-25T19:32:47.217Z,98708.52
2023-03-25T19:35:16.282Z,98708.46
2023-03-25T19:37:50.780Z,98705.55
2023-03-25T19:40:20.382Z,98705.16
2023-03-25T19:42:49.527Z,98705.79
2023-03-25T19:45:18.000Z,98704.06
2023-03-25T19:47:45.974Z,98705.58
2023-03-25T19:50:15.580Z,98700.63
2023-03-25T19:52:43.768Z,98698.25
2023-03-25T19:55:12.048Z,98696.32
2023-03-25T19:57:40.947Z,98693.86
2023-03-25T20:00:12.929Z,98689.67
2023-03-25T20:02:44.616Z,98687.98
2023-03-25T20:05:13.253Z,98687.15
2023-03-25T20:07:41.713Z,98690.10
2023-03-25T20:10:19.456Z,98690.77
2023-03-25T20:12:49.212Z,98693.98
2023-03-25T20:15:18.334Z,98695.37
2023-03-25T20:17:47.767Z,98698.01
2023-03-25T20:20:15.790Z,98696.45
2023-03-25T20:22:43.830Z,98698.83
2023-03-25T20:25:12.265Z,98696.05
2023-03-25T20:27:41.868Z,98700.23
2023-03-25T20:30:11.287Z,98702.48
2023-03-25T20:32:41.330Z,98700.86
2023-03-25T20:35:11.306Z,98704.11
2023-03-25T20:37:40.537Z,98703.52
2023-03-25T20:40:11.390Z,98707.00
2023-03-25T20:42:42.822Z,98704.44
2023-03-25T20:45:11.894Z,98704.40
2023-03-25T20:47:39.763Z,98702.02
2023-03-25T20:50:07.755Z,98703.41
2023-03-25T20:52:36.242Z,98706.21
2023-03-25T20:55:05.665Z,98703.55
2023-03-25T20:57:33.615Z,98703.15
2023-03-25T21:00:01.717Z,98707.31
2023-03-25T21:02:29.666Z,98702.52
2023-03-25T21:04:58.503Z,98704.55
2023-03-25T21:07:29.040Z,98704.73
2023-03-25T21:09:57.181Z,98706.74
2023-03-25T21:12:32.824Z,98707.19
2023-03-25T21:15:09.170Z,98705.23
2023-03-25T21:17:37.356Z,98702.61
2023-03-25T21:20:07.345Z,98705.95
2023-03-25T21:22:35.612Z,98704.45
2023-03-25T21:25:03.462Z,98704.13
2023-03-25T21:27:37.811Z,98703.07
2023-03-25T21:30:09.257Z,98702.38
2023-03-25T21:32:37.773Z,98696.96
2023-03-25T21:35:06.169Z,98698.09
2023-03-25T21:37:40.553Z,98697.50
2023-03-25T21:40:13.003Z,98705.08
2023-03-25T21:42:41.706Z,98713.78
2023-03-25T21:45:11.467Z,98718.27
2023-03-25T21:47:39.996Z,98709.67
2023-03-25T21:50:10.160Z,98714.80
2023-03-25T21:52:42.802Z,98710.83
2023-03-25T21:55:11.292Z,98712.30
2023-03-25T21:57:39.914Z,98712.31
2023-03-25T22:00:08.465Z,98709.81
2023-03-25T22:02:45.518Z,98714.19
2023-03-25T22:05:14.548Z,98716.27
2023-03-25T22:07:42.518Z,98720.49
2023-03-25T22:10:10.467Z,98720.52
2023-03-25T22:12:38.193Z,98720.70
2023-03-25T22:15:06.619Z,98719.20
2023-03-25T22:17:34.356Z,98719.58
2023-03-25T22:20:02.402Z,98716.45
2023-03-25T22:22:30.167Z,98713.60
2023-03-25T22:24:57.989Z,98711.64
2023-03-25T22:27:25.671Z,98711.04
2023-03-25T22:29:53.459Z,98714.06
2023-03-25T22:32:21.199Z,98704.26
2023-03-25T22:34:49.077Z,98700.94
2023-03-25T22:37:17.011Z,98700.48
2023-03-25T22:39:44.638Z,98700.55
2023-03-25T22:42:12.538Z,98698.14
2023-03-25T22:44:40.203Z,98698.92
2023-03-25T22:47:07.863Z,98696.45
2023-03-25T22:49:37.577Z,98691.81
2023-03-25T22:52:05.743Z,98694.12
2023-03-25T22:54:33.472Z,98691.06
2023-03-25T22:57:01.354Z,98691.89
2023-03-25T22:59:29.156Z,98686.70
2023-03-25T23:01:56.837Z,98687.69
2023-03-25T23:04:24.533Z,98683.08
2023-03-25T23:07:00.877Z,98683.95
2023-03-25T23:09:42.479Z,98684.91
2023-03-25T23:12:11.878Z,98685.77
2023-03-25T23:14:41.107Z,98688.05
2023-03-25T23:17:10.262Z,98684.27
2023-03-25T23:19:37.959Z,98685.09
2023-03-25T23:22:05.931Z,98685.02
2023-03-25T23:24:37.166Z,98682.25
2023-03-25T23:27:07.072Z,98684.57
2023-03-25T23:29:39.124Z,98684.02
2023-03-25T23:32:07.907Z,98682.64
2023-03-25T23:34:35.776Z,98682.69
2023-03-25T23:37:04.058Z,98677.80
2023-03-25T23:39:31.804Z,98674.59
2023-03-25T23:41:59.600Z,98669.25
2023-03-25T23:44:27.591Z,98671.11
2023-03-25T23:46:55.635Z,98668.06
2023-03-25T23:49:23.590Z,98670.84
2023-03-25T23:51:51.306Z,98668.91
2023-03-25T23:54:18.997Z,98670.23
2023-03-25T23:56:46.826Z,98668.85
2023-03-25T23:59:14.717Z,98668.29
